CheckWX is a tool to help pilots better visualize weather data.  It is not intended as a substitute for an official pre-flight weather briefing.

10:07:25 UTC

FAGG METAR
George Airport
George, South Africa
Current

17 mins ago

FAGG 220950Z 21015G25KT 190V250 9999 FEW022 FEW025TCU BKN035 12/06 Q1022
Observed
Sep-22 @ 09:50 UTC
Wind
  • 210° at 15 KTS
  • Gusting to 25 KTS
Visibility
10,000+ meters
Flight Rules
VFR
Cloud Levels
  • Few at 2,200' AGL
  • Few at 2,500' AGL
  • Broken at 3,500' AGL
Temperature
12°C / 54°F
Dewpoint
C / 43°F
Humidity
67%
Altimeter
30.18" Hg
Pressure
1021.92 hPa
Previous

29 mins ago

FAGG 220938Z 28013KT 250V310 6000 -SHRA FEW024 SCT025TCU BKN039 13/09 Q1022
Observed
Sep-22 @ 09:38 UTC
Wind
  • 280° at 13 KTS
Visibility
6,000 meters
Flight Rules
MVFR
Conditions
Light Rain
Cloud Levels
  • Few at 2,400' AGL
  • Scattered at 2,500' AGL
  • Broken at 3,900' AGL
Temperature
13°C / 55°F
Dewpoint
C / 48°F
Humidity
77%
Altimeter
30.18" Hg
Pressure
1021.92 hPa
Previous

1 hour ago

FAGG 220901Z 26011KT 230V300 9999 SCT014 SCT025TCU BKN032 12/09 Q1022
Observed
Sep-22 @ 09:01 UTC
Wind
  • 260° at 11 KTS
Visibility
10,000+ meters
Flight Rules
VFR
Cloud Levels
  • Scattered at 1,400' AGL
  • Scattered at 2,500' AGL
  • Broken at 3,200' AGL
Temperature
12°C / 54°F
Dewpoint
C / 48°F
Humidity
82%
Altimeter
30.18" Hg
Pressure
1021.92 hPa